sensor_id;sensor_type;location;lat;lon;timestamp;P1;durP1;ratioP1;P2;durP2;ratioP2
24389;SDS011;12510;56.468;-3.004;2022-09-21T00:00:11;4.55;;;3.88;;
24389;SDS011;12510;56.468;-3.004;2022-09-21T00:02:38;4.78;;;4.38;;
24389;SDS011;12510;56.468;-3.004;2022-09-21T00:05:04;4.75;;;4.35;;
24389;SDS011;12510;56.468;-3.004;2022-09-21T00:07:31;4.93;;;4.32;;
24389;SDS011;12510;56.468;-3.004;2022-09-21T00:09:57;4.93;;;4.25;;
24389;SDS011;12510;56.468;-3.004;2022-09-21T00:12:24;4.97;;;4.00;;
24389;SDS011;12510;56.468;-3.004;2022-09-21T00:14:50;6.22;;;4.45;;
24389;SDS011;12510;56.468;-3.004;2022-09-21T00:17:17;5.10;;;4.60;;
24389;SDS011;12510;56.468;-3.004;2022-09-21T00:19:43;5.50;;;4.80;;
24389;SDS011;12510;56.468;-3.004;2022-09-21T00:22:10;6.28;;;4.57;;
24389;SDS011;12510;56.468;-3.004;2022-09-21T00:24:36;5.38;;;4.88;;
24389;SDS011;12510;56.468;-3.004;2022-09-21T00:27:03;7.18;;;5.22;;
24389;SDS011;12510;56.468;-3.004;2022-09-21T00:29:29;5.35;;;4.45;;
24389;SDS011;12510;56.468;-3.004;2022-09-21T00:31:56;5.80;;;4.90;;
24389;SDS011;12510;56.468;-3.004;2022-09-21T00:34:23;5.28;;;4.78;;
24389;SDS011;12510;56.468;-3.004;2022-09-21T00:36:49;5.85;;;4.30;;
24389;SDS011;12510;56.468;-3.004;2022-09-21T00:39:16;4.68;;;4.22;;
24389;SDS011;12510;56.468;-3.004;2022-09-21T00:41:42;6.35;;;4.70;;
24389;SDS011;12510;56.468;-3.004;2022-09-21T00:46:49;4.93;;;4.50;;
24389;SDS011;12510;56.468;-3.004;2022-09-21T00:49:18;4.70;;;4.30;;
24389;SDS011;12510;56.468;-3.004;2022-09-21T00:51:46;6.18;;;4.97;;
24389;SDS011;12510;56.468;-3.004;2022-09-21T00:54:15;5.60;;;4.90;;
24389;SDS011;12510;56.468;-3.004;2022-09-21T00:56:45;6.40;;;5.07;;
24389;SDS011;12510;56.468;-3.004;2022-09-21T00:59:12;7.15;;;4.82;;
24389;SDS011;12510;56.468;-3.004;2022-09-21T01:01:41;5.38;;;4.85;;
24389;SDS011;12510;56.468;-3.004;2022-09-21T01:04:08;5.20;;;4.70;;
24389;SDS011;12510;56.468;-3.004;2022-09-21T01:06:36;5.15;;;4.53;;
24389;SDS011;12510;56.468;-3.004;2022-09-21T01:09:04;5.85;;;5.25;;
24389;SDS011;12510;56.468;-3.004;2022-09-21T01:30:19;5.15;;;4.63;;
24389;SDS011;12510;56.468;-3.004;2022-09-21T01:32:50;5.40;;;4.80;;
24389;SDS011;12510;56.468;-3.004;2022-09-21T01:35:29;8.25;;;5.30;;
24389;SDS011;12510;56.468;-3.004;2022-09-21T01:38:08;5.50;;;5.00;;
24389;SDS011;12510;56.468;-3.004;2022-09-21T01:40:40;5.85;;;5.18;;
24389;SDS011;12510;56.468;-3.004;2022-09-21T01:43:12;5.10;;;4.70;;
24389;SDS011;12510;56.468;-3.004;2022-09-21T01:45:45;7.72;;;4.80;;
24389;SDS011;12510;56.468;-3.004;2022-09-21T01:48:15;5.53;;;5.03;;
24389;SDS011;12510;56.468;-3.004;2022-09-21T01:50:44;5.45;;;4.80;;
24389;SDS011;12510;56.468;-3.004;2022-09-21T01:53:16;6.38;;;5.20;;
24389;SDS011;12510;56.468;-3.004;2022-09-21T01:55:50;5.30;;;4.80;;
24389;SDS011;12510;56.468;-3.004;2022-09-21T02:00:58;7.20;;;5.07;;
24389;SDS011;12510;56.468;-3.004;2022-09-21T02:03:33;5.18;;;4.68;;
24389;SDS011;12510;56.468;-3.004;2022-09-21T02:06:03;6.30;;;4.80;;
24389;SDS011;12510;56.468;-3.004;2022-09-21T02:08:31;6.53;;;5.47;;
24389;SDS011;12510;56.468;-3.004;2022-09-21T02:11:01;8.30;;;4.53;;
24389;SDS011;12510;56.468;-3.004;2022-09-21T02:13:33;5.78;;;5.30;;
24389;SDS011;12510;56.468;-3.004;2022-09-21T02:18:47;6.43;;;5.50;;
24389;SDS011;12510;56.468;-3.004;2022-09-21T02:21:31;6.93;;;6.10;;
24389;SDS011;12510;56.468;-3.004;2022-09-21T02:26:49;7.30;;;5.68;;
24389;SDS011;12510;56.468;-3.004;2022-09-21T02:32:08;6.10;;;5.50;;
24389;SDS011;12510;56.468;-3.004;2022-09-21T02:34:43;6.47;;;5.78;;
24389;SDS011;12510;56.468;-3.004;2022-09-21T02:39:47;6.05;;;5.43;;
24389;SDS011;12510;56.468;-3.004;2022-09-21T02:42:23;5.95;;;5.43;;
24389;SDS011;12510;56.468;-3.004;2022-09-21T02:45:06;5.47;;;5.05;;
24389;SDS011;12510;56.468;-3.004;2022-09-21T02:47:41;6.32;;;5.68;;
24389;SDS011;12510;56.468;-3.004;2022-09-21T02:50:22;5.70;;;5.20;;
24389;SDS011;12510;56.468;-3.004;2022-09-21T02:52:54;5.55;;;5.00;;
24389;SDS011;12510;56.468;-3.004;2022-09-21T02:55:22;6.82;;;5.97;;
24389;SDS011;12510;56.468;-3.004;2022-09-21T02:57:50;6.40;;;5.45;;
24389;SDS011;12510;56.468;-3.004;2022-09-21T03:00:20;5.88;;;5.38;;
24389;SDS011;12510;56.468;-3.004;2022-09-21T03:02:46;6.28;;;5.68;;
24389;SDS011;12510;56.468;-3.004;2022-09-21T03:05:13;6.10;;;5.50;;
24389;SDS011;12510;56.468;-3.004;2022-09-21T03:07:40;7.63;;;5.43;;
24389;SDS011;12510;56.468;-3.004;2022-09-21T03:10:06;6.32;;;5.50;;
24389;SDS011;12510;56.468;-3.004;2022-09-21T03:12:34;5.75;;;5.25;;
24389;SDS011;12510;56.468;-3.004;2022-09-21T03:15:02;5.88;;;5.13;;
24389;SDS011;12510;56.468;-3.004;2022-09-21T03:17:29;5.80;;;5.30;;
24389;SDS011;12510;56.468;-3.004;2022-09-21T03:19:56;5.60;;;5.10;;
24389;SDS011;12510;56.468;-3.004;2022-09-21T03:22:22;6.85;;;5.88;;
24389;SDS011;12510;56.468;-3.004;2022-09-21T03:24:49;5.97;;;5.47;;
24389;SDS011;12510;56.468;-3.004;2022-09-21T03:27:16;6.00;;;5.40;;
24389;SDS011;12510;56.468;-3.004;2022-09-21T03:29:45;5.13;;;4.72;;
24389;SDS011;12510;56.468;-3.004;2022-09-21T03:32:12;6.43;;;5.22;;
24389;SDS011;12510;56.468;-3.004;2022-09-21T03:34:39;5.38;;;4.88;;
24389;SDS011;12510;56.468;-3.004;2022-09-21T03:37:06;5.28;;;4.78;;
24389;SDS011;12510;56.468;-3.004;2022-09-21T03:39:34;5.55;;;5.13;;
24389;SDS011;12510;56.468;-3.004;2022-09-21T03:42:01;6.22;;;5.63;;
24389;SDS011;12510;56.468;-3.004;2022-09-21T03:44:28;7.18;;;6.57;;
24389;SDS011;12510;56.468;-3.004;2022-09-21T03:46:55;6.50;;;5.90;;
24389;SDS011;12510;56.468;-3.004;2022-09-21T03:49:23;6.82;;;6.18;;
24389;SDS011;12510;56.468;-3.004;2022-09-21T03:51:49;6.40;;;5.82;;
24389;SDS011;12510;56.468;-3.004;2022-09-21T03:54:16;7.88;;;6.55;;
24389;SDS011;12510;56.468;-3.004;2022-09-21T03:56:42;6.57;;;6.00;;
24389;SDS011;12510;56.468;-3.004;2022-09-21T03:59:10;6.53;;;5.93;;
24389;SDS011;12510;56.468;-3.004;2022-09-21T04:01:36;7.68;;;6.20;;
24389;SDS011;12510;56.468;-3.004;2022-09-21T04:04:03;6.40;;;5.80;;
24389;SDS011;12510;56.468;-3.004;2022-09-21T04:06:29;7.53;;;6.93;;
24389;SDS011;12510;56.468;-3.004;2022-09-21T04:08:56;6.70;;;6.10;;
24389;SDS011;12510;56.468;-3.004;2022-09-21T04:11:22;7.22;;;6.63;;
24389;SDS011;12510;56.468;-3.004;2022-09-21T04:13:49;8.43;;;7.07;;
24389;SDS011;12510;56.468;-3.004;2022-09-21T04:16:25;8.65;;;7.85;;
24389;SDS011;12510;56.468;-3.004;2022-09-21T04:18:52;8.68;;;7.68;;
24389;SDS011;12510;56.468;-3.004;2022-09-21T04:21:19;7.68;;;6.88;;
24389;SDS011;12510;56.468;-3.004;2022-09-21T04:23:47;8.13;;;7.35;;
24389;SDS011;12510;56.468;-3.004;2022-09-21T04:26:19;7.80;;;7.05;;
24389;SDS011;12510;56.468;-3.004;2022-09-21T04:28:48;9.48;;;7.47;;
24389;SDS011;12510;56.468;-3.004;2022-09-21T04:31:14;7.97;;;7.28;;
24389;SDS011;12510;56.468;-3.004;2022-09-21T04:33:41;10.60;;;8.38;;
24389;SDS011;12510;56.468;-3.004;2022-09-21T04:36:07;8.48;;;7.13;;
24389;SDS011;12510;56.468;-3.004;2022-09-21T04:38:34;7.43;;;6.82;;
24389;SDS011;12510;56.468;-3.004;2022-09-21T04:41:00;7.93;;;7.15;;
24389;SDS011;12510;56.468;-3.004;2022-09-21T04:43:28;12.02;;;7.53;;
24389;SDS011;12510;56.468;-3.004;2022-09-21T04:45:54;7.75;;;7.00;;
24389;SDS011;12510;56.468;-3.004;2022-09-21T04:48:21;8.75;;;7.85;;
24389;SDS011;12510;56.468;-3.004;2022-09-21T04:50:48;8.93;;;8.02;;
24389;SDS011;12510;56.468;-3.004;2022-09-21T04:53:15;7.68;;;6.88;;
24389;SDS011;12510;56.468;-3.004;2022-09-21T04:55:43;7.68;;;6.88;;
24389;SDS011;12510;56.468;-3.004;2022-09-21T04:58:10;7.28;;;6.40;;
24389;SDS011;12510;56.468;-3.004;2022-09-21T05:00:40;6.95;;;6.35;;
24389;SDS011;12510;56.468;-3.004;2022-09-21T05:03:06;7.68;;;7.07;;
24389;SDS011;12510;56.468;-3.004;2022-09-21T05:05:33;7.53;;;6.72;;
24389;SDS011;12510;56.468;-3.004;2022-09-21T05:08:00;7.18;;;6.50;;
24389;SDS011;12510;56.468;-3.004;2022-09-21T05:10:26;7.07;;;6.43;;
24389;SDS011;12510;56.468;-3.004;2022-09-21T05:12:53;7.53;;;6.82;;
24389;SDS011;12510;56.468;-3.004;2022-09-21T05:15:19;7.75;;;6.88;;
24389;SDS011;12510;56.468;-3.004;2022-09-21T05:17:47;7.95;;;7.00;;
24389;SDS011;12510;56.468;-3.004;2022-09-21T05:20:13;7.65;;;6.95;;
24389;SDS011;12510;56.468;-3.004;2022-09-21T05:22:39;7.43;;;6.75;;
24389;SDS011;12510;56.468;-3.004;2022-09-21T05:25:06;7.47;;;6.82;;
24389;SDS011;12510;56.468;-3.004;2022-09-21T05:27:33;8.80;;;7.13;;
24389;SDS011;12510;56.468;-3.004;2022-09-21T05:29:59;7.15;;;6.55;;
24389;SDS011;12510;56.468;-3.004;2022-09-21T05:35:32;7.60;;;6.85;;
24389;SDS011;12510;56.468;-3.004;2022-09-21T05:38:06;7.90;;;6.95;;
24389;SDS011;12510;56.468;-3.004;2022-09-21T05:40:38;10.25;;;6.80;;
24389;SDS011;12510;56.468;-3.004;2022-09-21T05:43:05;7.97;;;7.07;;
24389;SDS011;12510;56.468;-3.004;2022-09-21T05:45:31;9.15;;;7.28;;
24389;SDS011;12510;56.468;-3.004;2022-09-21T05:55:47;6.50;;;5.97;;
24389;SDS011;12510;56.468;-3.004;2022-09-21T06:03:54;7.78;;;6.40;;
24389;SDS011;12510;56.468;-3.004;2022-09-21T06:06:21;6.63;;;5.85;;
24389;SDS011;12510;56.468;-3.004;2022-09-21T06:08:48;7.78;;;6.95;;
24389;SDS011;12510;56.468;-3.004;2022-09-21T06:11:14;7.03;;;6.20;;
24389;SDS011;12510;56.468;-3.004;2022-09-21T06:13:41;7.32;;;6.68;;
24389;SDS011;12510;56.468;-3.004;2022-09-21T06:16:08;7.53;;;6.88;;
24389;SDS011;12510;56.468;-3.004;2022-09-21T06:18:37;7.03;;;6.38;;
24389;SDS011;12510;56.468;-3.004;2022-09-21T06:21:07;8.48;;;6.82;;
24389;SDS011;12510;56.468;-3.004;2022-09-21T06:23:34;10.10;;;7.68;;
24389;SDS011;12510;56.468;-3.004;2022-09-21T06:26:01;7.18;;;6.10;;
24389;SDS011;12510;56.468;-3.004;2022-09-21T06:28:27;7.10;;;6.43;;
24389;SDS011;12510;56.468;-3.004;2022-09-21T06:30:54;6.72;;;6.20;;
24389;SDS011;12510;56.468;-3.004;2022-09-21T06:33:22;7.72;;;6.40;;
24389;SDS011;12510;56.468;-3.004;2022-09-21T06:35:53;8.15;;;6.47;;
24389;SDS011;12510;56.468;-3.004;2022-09-21T06:38:21;7.47;;;5.95;;
24389;SDS011;12510;56.468;-3.004;2022-09-21T06:40:48;6.93;;;6.18;;
24389;SDS011;12510;56.468;-3.004;2022-09-21T06:43:16;6.70;;;6.10;;
24389;SDS011;12510;56.468;-3.004;2022-09-21T06:45:42;6.05;;;5.55;;
24389;SDS011;12510;56.468;-3.004;2022-09-21T06:48:09;5.85;;;5.35;;
24389;SDS011;12510;56.468;-3.004;2022-09-21T06:50:36;6.57;;;5.80;;
24389;SDS011;12510;56.468;-3.004;2022-09-21T06:53:02;8.02;;;5.50;;
24389;SDS011;12510;56.468;-3.004;2022-09-21T06:55:29;6.22;;;5.53;;
24389;SDS011;12510;56.468;-3.004;2022-09-21T06:58:00;5.88;;;5.38;;
24389;SDS011;12510;56.468;-3.004;2022-09-21T07:00:28;6.93;;;5.30;;
24389;SDS011;12510;56.468;-3.004;2022-09-21T07:02:55;6.75;;;6.15;;
24389;SDS011;12510;56.468;-3.004;2022-09-21T07:05:21;5.75;;;5.25;;
24389;SDS011;12510;56.468;-3.004;2022-09-21T07:07:48;6.15;;;4.50;;
24389;SDS011;12510;56.468;-3.004;2022-09-21T07:10:15;5.60;;;5.10;;
24389;SDS011;12510;56.468;-3.004;2022-09-21T07:12:42;4.90;;;4.47;;
24389;SDS011;12510;56.468;-3.004;2022-09-21T07:15:09;5.53;;;4.15;;
24389;SDS011;12510;56.468;-3.004;2022-09-21T07:17:37;4.70;;;4.30;;
24389;SDS011;12510;56.468;-3.004;2022-09-21T07:20:05;4.72;;;4.22;;
24389;SDS011;12510;56.468;-3.004;2022-09-21T07:22:33;4.10;;;3.80;;
24389;SDS011;12510;56.468;-3.004;2022-09-21T07:25:00;6.10;;;4.55;;
24389;SDS011;12510;56.468;-3.004;2022-09-21T07:27:27;5.25;;;3.90;;
24389;SDS011;12510;56.468;-3.004;2022-09-21T07:29:55;5.88;;;4.38;;
24389;SDS011;12510;56.468;-3.004;2022-09-21T07:32:21;4.70;;;4.25;;
24389;SDS011;12510;56.468;-3.004;2022-09-21T07:34:48;5.05;;;3.97;;
24389;SDS011;12510;56.468;-3.004;2022-09-21T07:37:14;6.25;;;4.22;;
24389;SDS011;12510;56.468;-3.004;2022-09-21T07:39:41;4.15;;;3.75;;
24389;SDS011;12510;56.468;-3.004;2022-09-21T07:42:07;6.25;;;4.20;;
24389;SDS011;12510;56.468;-3.004;2022-09-21T07:44:34;4.35;;;3.95;;
24389;SDS011;12510;56.468;-3.004;2022-09-21T07:47:00;4.47;;;4.15;;
24389;SDS011;12510;56.468;-3.004;2022-09-21T07:49:28;7.88;;;4.70;;
24389;SDS011;12510;56.468;-3.004;2022-09-21T07:51:54;6.20;;;4.38;;
24389;SDS011;12510;56.468;-3.004;2022-09-21T07:54:22;4.40;;;4.05;;
24389;SDS011;12510;56.468;-3.004;2022-09-21T07:56:48;4.32;;;4.03;;
24389;SDS011;12510;56.468;-3.004;2022-09-21T07:59:33;6.00;;;4.60;;
24389;SDS011;12510;56.468;-3.004;2022-09-21T08:01:59;7.57;;;4.78;;
24389;SDS011;12510;56.468;-3.004;2022-09-21T08:04:26;6.47;;;4.13;;
24389;SDS011;12510;56.468;-3.004;2022-09-21T08:06:52;4.45;;;4.05;;
24389;SDS011;12510;56.468;-3.004;2022-09-21T08:09:19;4.45;;;4.05;;
24389;SDS011;12510;56.468;-3.004;2022-09-21T08:11:45;5.00;;;4.18;;
24389;SDS011;12510;56.468;-3.004;2022-09-21T08:14:12;5.90;;;4.13;;
24389;SDS011;12510;56.468;-3.004;2022-09-21T08:16:45;4.38;;;3.97;;
24389;SDS011;12510;56.468;-3.004;2022-09-21T08:19:13;4.60;;;4.18;;
24389;SDS011;12510;56.468;-3.004;2022-09-21T08:21:40;7.30;;;4.35;;
24389;SDS011;12510;56.468;-3.004;2022-09-21T08:24:06;5.05;;;4.05;;
24389;SDS011;12510;56.468;-3.004;2022-09-21T08:26:33;5.28;;;3.88;;
24389;SDS011;12510;56.468;-3.004;2022-09-21T08:28:59;7.05;;;4.05;;
24389;SDS011;12510;56.468;-3.004;2022-09-21T08:31:26;4.32;;;3.65;;
24389;SDS011;12510;56.468;-3.004;2022-09-21T08:33:53;4.43;;;3.60;;
24389;SDS011;12510;56.468;-3.004;2022-09-21T08:36:21;5.47;;;4.95;;
24389;SDS011;12510;56.468;-3.004;2022-09-21T08:38:47;5.55;;;4.38;;
24389;SDS011;12510;56.468;-3.004;2022-09-21T08:41:22;13.18;;;4.60;;
24389;SDS011;12510;56.468;-3.004;2022-09-21T08:44:02;4.00;;;3.63;;
24389;SDS011;12510;56.468;-3.004;2022-09-21T08:46:35;3.70;;;3.38;;
24389;SDS011;12510;56.468;-3.004;2022-09-21T08:49:37;5.43;;;3.40;;
24389;SDS011;12510;56.468;-3.004;2022-09-21T08:51:59;3.65;;;3.33;;
24389;SDS011;12510;56.468;-3.004;2022-09-21T08:57:01;4.05;;;3.40;;
24389;SDS011;12510;56.468;-3.004;2022-09-21T08:59:27;4.55;;;3.35;;
24389;SDS011;12510;56.468;-3.004;2022-09-21T09:01:56;4.28;;;3.13;;
24389;SDS011;12510;56.468;-3.004;2022-09-21T09:15:45;3.45;;;3.10;;
24389;SDS011;12510;56.468;-3.004;2022-09-21T09:18:32;6.20;;;4.40;;
24389;SDS011;12510;56.468;-3.004;2022-09-21T09:21:12;9.82;;;3.17;;
24389;SDS011;12510;56.468;-3.004;2022-09-21T09:26:14;6.07;;;3.03;;
24389;SDS011;12510;56.468;-3.004;2022-09-21T09:28:53;3.72;;;3.33;;
24389;SDS011;12510;56.468;-3.004;2022-09-21T09:31:24;3.17;;;2.88;;
24389;SDS011;12510;56.468;-3.004;2022-09-21T09:36:26;3.55;;;3.33;;
24389;SDS011;12510;56.468;-3.004;2022-09-21T09:39:04;6.03;;;3.45;;
24389;SDS011;12510;56.468;-3.004;2022-09-21T09:52:39;5.63;;;4.80;;
24389;SDS011;12510;56.468;-3.004;2022-09-21T09:55:14;5.05;;;3.65;;
24389;SDS011;12510;56.468;-3.004;2022-09-21T09:57:55;6.57;;;3.22;;
24389;SDS011;12510;56.468;-3.004;2022-09-21T10:00:21;5.60;;;3.90;;
24389;SDS011;12510;56.468;-3.004;2022-09-21T10:02:52;5.55;;;3.70;;
24389;SDS011;12510;56.468;-3.004;2022-09-21T10:05:24;4.68;;;3.20;;
24389;SDS011;12510;56.468;-3.004;2022-09-21T10:07:57;4.28;;;3.60;;
24389;SDS011;12510;56.468;-3.004;2022-09-21T10:15:44;4.30;;;3.30;;
24389;SDS011;12510;56.468;-3.004;2022-09-21T10:18:16;3.72;;;3.33;;
24389;SDS011;12510;56.468;-3.004;2022-09-21T10:20:52;5.18;;;3.92;;
24389;SDS011;12510;56.468;-3.004;2022-09-21T10:23:23;4.20;;;3.80;;
24389;SDS011;12510;56.468;-3.004;2022-09-21T10:25:55;5.10;;;4.15;;
24389;SDS011;12510;56.468;-3.004;2022-09-21T10:28:24;4.28;;;3.88;;
24389;SDS011;12510;56.468;-3.004;2022-09-21T10:31:37;12.35;;;5.40;;
24389;SDS011;12510;56.468;-3.004;2022-09-21T10:33:48;6.07;;;3.90;;
24389;SDS011;12510;56.468;-3.004;2022-09-21T10:36:35;4.25;;;3.85;;
24389;SDS011;12510;56.468;-3.004;2022-09-21T10:42:05;3.80;;;3.22;;
24389;SDS011;12510;56.468;-3.004;2022-09-21T10:44:43;5.60;;;4.43;;
24389;SDS011;12510;56.468;-3.004;2022-09-21T10:50:03;4.25;;;3.83;;
24389;SDS011;12510;56.468;-3.004;2022-09-21T10:52:41;6.47;;;3.72;;
24389;SDS011;12510;56.468;-3.004;2022-09-21T10:55:18;5.35;;;3.65;;
24389;SDS011;12510;56.468;-3.004;2022-09-21T10:57:47;5.78;;;3.78;;
24389;SDS011;12510;56.468;-3.004;2022-09-21T11:00:26;5.97;;;3.80;;
24389;SDS011;12510;56.468;-3.004;2022-09-21T11:06:07;3.85;;;3.30;;
24389;SDS011;12510;56.468;-3.004;2022-09-21T11:08:45;4.72;;;3.20;;
24389;SDS011;12510;56.468;-3.004;2022-09-21T11:11:28;4.18;;;3.35;;
24389;SDS011;12510;56.468;-3.004;2022-09-21T11:14:18;3.85;;;3.05;;
24389;SDS011;12510;56.468;-3.004;2022-09-21T11:16:56;4.45;;;2.88;;
24389;SDS011;12510;56.468;-3.004;2022-09-21T11:25:23;3.80;;;2.90;;
24389;SDS011;12510;56.468;-3.004;2022-09-21T11:27:58;7.25;;;6.05;;
24389;SDS011;12510;56.468;-3.004;2022-09-21T11:31:03;5.57;;;3.38;;
24389;SDS011;12510;56.468;-3.004;2022-09-21T11:34:10;3.13;;;2.75;;
24389;SDS011;12510;56.468;-3.004;2022-09-21T11:36:58;4.70;;;2.95;;
24389;SDS011;12510;56.468;-3.004;2022-09-21T11:39:35;4.07;;;3.15;;
24389;SDS011;12510;56.468;-3.004;2022-09-21T11:42:13;4.47;;;3.10;;
24389;SDS011;12510;56.468;-3.004;2022-09-21T11:44:59;3.60;;;3.10;;
24389;SDS011;12510;56.468;-3.004;2022-09-21T11:50:45;5.10;;;4.60;;
24389;SDS011;12510;56.468;-3.004;2022-09-21T11:53:32;6.47;;;2.92;;
24389;SDS011;12510;56.468;-3.004;2022-09-21T11:56:15;3.92;;;3.08;;
24389;SDS011;12510;56.468;-3.004;2022-09-21T12:21:07;4.85;;;3.00;;
24389;SDS011;12510;56.468;-3.004;2022-09-21T12:26:05;2.60;;;2.38;;
24389;SDS011;12510;56.468;-3.004;2022-09-21T12:28:45;8.02;;;5.00;;
24389;SDS011;12510;56.468;-3.004;2022-09-21T12:31:23;3.70;;;3.05;;
24389;SDS011;12510;56.468;-3.004;2022-09-21T12:33:57;2.92;;;2.42;;
24389;SDS011;12510;56.468;-3.004;2022-09-21T12:36:44;7.57;;;3.38;;
24389;SDS011;12510;56.468;-3.004;2022-09-21T12:39:29;3.20;;;2.97;;
24389;SDS011;12510;56.468;-3.004;2022-09-21T12:42:04;3.05;;;2.75;;
24389;SDS011;12510;56.468;-3.004;2022-09-21T12:44:45;3.63;;;3.03;;
24389;SDS011;12510;56.468;-3.004;2022-09-21T12:47:22;5.68;;;3.03;;
24389;SDS011;12510;56.468;-3.004;2022-09-21T12:50:20;5.20;;;3.13;;
24389;SDS011;12510;56.468;-3.004;2022-09-21T12:52:52;3.42;;;3.13;;
24389;SDS011;12510;56.468;-3.004;2022-09-21T12:55:30;6.00;;;3.33;;
24389;SDS011;12510;56.468;-3.004;2022-09-21T13:01:23;2.92;;;2.72;;
24389;SDS011;12510;56.468;-3.004;2022-09-21T13:09:50;3.90;;;2.80;;
24389;SDS011;12510;56.468;-3.004;2022-09-21T13:12:27;4.38;;;3.08;;
24389;SDS011;12510;56.468;-3.004;2022-09-21T13:15:04;2.90;;;2.60;;
24389;SDS011;12510;56.468;-3.004;2022-09-21T13:18:01;3.60;;;2.80;;
24389;SDS011;12510;56.468;-3.004;2022-09-21T13:20:35;16.25;;;4.45;;
24389;SDS011;12510;56.468;-3.004;2022-09-21T13:23:04;3.67;;;3.13;;
24389;SDS011;12510;56.468;-3.004;2022-09-21T13:26:04;3.03;;;2.58;;
24389;SDS011;12510;56.468;-3.004;2022-09-21T13:36:41;3.38;;;2.65;;
24389;SDS011;12510;56.468;-3.004;2022-09-21T13:41:35;5.72;;;2.60;;
24389;SDS011;12510;56.468;-3.004;2022-09-21T13:44:02;3.80;;;2.30;;
24389;SDS011;12510;56.468;-3.004;2022-09-21T13:54:28;2.50;;;2.30;;
24389;SDS011;12510;56.468;-3.004;2022-09-21T13:57:03;4.30;;;2.60;;
24389;SDS011;12510;56.468;-3.004;2022-09-21T13:59:39;3.85;;;3.05;;
24389;SDS011;12510;56.468;-3.004;2022-09-21T14:02:17;3.15;;;2.80;;
24389;SDS011;12510;56.468;-3.004;2022-09-21T14:04:50;4.80;;;2.75;;
24389;SDS011;12510;56.468;-3.004;2022-09-21T14:07:17;4.15;;;3.50;;
24389;SDS011;12510;56.468;-3.004;2022-09-21T14:09:58;3.70;;;2.47;;
24389;SDS011;12510;56.468;-3.004;2022-09-21T14:12:30;5.10;;;2.90;;
24389;SDS011;12510;56.468;-3.004;2022-09-21T14:15:28;3.97;;;2.97;;
24389;SDS011;12510;56.468;-3.004;2022-09-21T14:26:35;3.90;;;3.08;;
24389;SDS011;12510;56.468;-3.004;2022-09-21T14:31:51;3.90;;;2.75;;
24389;SDS011;12510;56.468;-3.004;2022-09-21T14:34:23;3.90;;;3.03;;
24389;SDS011;12510;56.468;-3.004;2022-09-21T14:36:57;3.67;;;2.28;;
24389;SDS011;12510;56.468;-3.004;2022-09-21T14:39:29;6.88;;;3.00;;
24389;SDS011;12510;56.468;-3.004;2022-09-21T14:42:06;3.13;;;2.30;;
24389;SDS011;12510;56.468;-3.004;2022-09-21T14:44:37;2.70;;;2.47;;
24389;SDS011;12510;56.468;-3.004;2022-09-21T14:56:01;2.83;;;2.10;;
24389;SDS011;12510;56.468;-3.004;2022-09-21T15:06:42;2.40;;;1.88;;
24389;SDS011;12510;56.468;-3.004;2022-09-21T15:18:47;2.70;;;2.10;;
24389;SDS011;12510;56.468;-3.004;2022-09-21T15:21:26;3.53;;;1.88;;
24389;SDS011;12510;56.468;-3.004;2022-09-21T15:23:54;2.83;;;1.70;;
24389;SDS011;12510;56.468;-3.004;2022-09-21T15:26:22;2.20;;;1.67;;
24389;SDS011;12510;56.468;-3.004;2022-09-21T15:28:58;2.20;;;1.77;;
24389;SDS011;12510;56.468;-3.004;2022-09-21T15:31:39;3.55;;;2.08;;
24389;SDS011;12510;56.468;-3.004;2022-09-21T15:34:07;2.03;;;1.85;;
24389;SDS011;12510;56.468;-3.004;2022-09-21T15:36:36;1.70;;;1.50;;
24389;SDS011;12510;56.468;-3.004;2022-09-21T15:39:05;3.83;;;2.03;;
24389;SDS011;12510;56.468;-3.004;2022-09-21T15:41:39;2.97;;;1.80;;
24389;SDS011;12510;56.468;-3.004;2022-09-21T15:44:23;2.40;;;2.20;;
24389;SDS011;12510;56.468;-3.004;2022-09-21T15:46:56;2.00;;;1.80;;
24389;SDS011;12510;56.468;-3.004;2022-09-21T15:49:25;1.95;;;1.75;;
24389;SDS011;12510;56.468;-3.004;2022-09-21T15:51:59;5.78;;;2.65;;
24389;SDS011;12510;56.468;-3.004;2022-09-21T15:54:39;3.63;;;2.30;;
24389;SDS011;12510;56.468;-3.004;2022-09-21T15:57:22;2.25;;;2.00;;
24389;SDS011;12510;56.468;-3.004;2022-09-21T15:59:52;13.68;;;3.22;;
24389;SDS011;12510;56.468;-3.004;2022-09-21T16:02:23;3.70;;;2.28;;
24389;SDS011;12510;56.468;-3.004;2022-09-21T16:04:51;9.88;;;3.00;;
24389;SDS011;12510;56.468;-3.004;2022-09-21T16:09:58;2.10;;;1.90;;
24389;SDS011;12510;56.468;-3.004;2022-09-21T16:15:25;3.55;;;2.58;;
24389;SDS011;12510;56.468;-3.004;2022-09-21T16:20:38;3.22;;;2.03;;
24389;SDS011;12510;56.468;-3.004;2022-09-21T16:23:11;2.42;;;2.22;;
24389;SDS011;12510;56.468;-3.004;2022-09-21T16:25:42;2.67;;;1.88;;
24389;SDS011;12510;56.468;-3.004;2022-09-21T16:30:46;7.05;;;2.55;;
24389;SDS011;12510;56.468;-3.004;2022-09-21T16:38:53;7.32;;;2.60;;
24389;SDS011;12510;56.468;-3.004;2022-09-21T16:41:24;3.42;;;2.10;;
24389;SDS011;12510;56.468;-3.004;2022-09-21T16:43:57;4.05;;;2.80;;
24389;SDS011;12510;56.468;-3.004;2022-09-21T16:46:25;14.55;;;7.40;;
24389;SDS011;12510;56.468;-3.004;2022-09-21T16:48:52;4.00;;;2.60;;
24389;SDS011;12510;56.468;-3.004;2022-09-21T16:51:20;3.10;;;2.65;;
24389;SDS011;12510;56.468;-3.004;2022-09-21T16:53:50;2.78;;;2.25;;
24389;SDS011;12510;56.468;-3.004;2022-09-21T16:56:16;4.55;;;2.88;;
24389;SDS011;12510;56.468;-3.004;2022-09-21T16:58:43;3.28;;;2.20;;
24389;SDS011;12510;56.468;-3.004;2022-09-21T17:01:11;4.70;;;2.58;;
24389;SDS011;12510;56.468;-3.004;2022-09-21T17:03:39;3.70;;;2.60;;
24389;SDS011;12510;56.468;-3.004;2022-09-21T17:06:15;3.25;;;2.85;;
24389;SDS011;12510;56.468;-3.004;2022-09-21T17:08:43;5.28;;;3.22;;
24389;SDS011;12510;56.468;-3.004;2022-09-21T17:11:14;4.90;;;3.10;;
24389;SDS011;12510;56.468;-3.004;2022-09-21T17:13:48;4.68;;;2.83;;
24389;SDS011;12510;56.468;-3.004;2022-09-21T17:16:16;3.72;;;2.75;;
24389;SDS011;12510;56.468;-3.004;2022-09-21T17:18:44;4.07;;;2.90;;
24389;SDS011;12510;56.468;-3.004;2022-09-21T17:21:11;6.18;;;3.20;;
24389;SDS011;12510;56.468;-3.004;2022-09-21T17:23:38;4.15;;;2.85;;
24389;SDS011;12510;56.468;-3.004;2022-09-21T17:26:10;4.47;;;2.47;;
24389;SDS011;12510;56.468;-3.004;2022-09-21T17:28:42;4.82;;;2.90;;
24389;SDS011;12510;56.468;-3.004;2022-09-21T17:31:13;4.28;;;2.60;;
24389;SDS011;12510;56.468;-3.004;2022-09-21T17:33:41;4.35;;;3.38;;
24389;SDS011;12510;56.468;-3.004;2022-09-21T17:36:11;3.30;;;2.70;;
24389;SDS011;12510;56.468;-3.004;2022-09-21T17:38:38;3.25;;;2.60;;
24389;SDS011;12510;56.468;-3.004;2022-09-21T17:44:06;3.45;;;2.60;;
24389;SDS011;12510;56.468;-3.004;2022-09-21T17:46:41;5.13;;;2.67;;
24389;SDS011;12510;56.468;-3.004;2022-09-21T17:49:15;2.90;;;2.50;;
24389;SDS011;12510;56.468;-3.004;2022-09-21T17:51:42;2.55;;;2.35;;
24389;SDS011;12510;56.468;-3.004;2022-09-21T17:54:27;7.50;;;2.80;;
24389;SDS011;12510;56.468;-3.004;2022-09-21T17:56:59;6.13;;;2.38;;
24389;SDS011;12510;56.468;-3.004;2022-09-21T17:59:39;4.00;;;2.75;;
24389;SDS011;12510;56.468;-3.004;2022-09-21T18:02:18;2.58;;;2.28;;
24389;SDS011;12510;56.468;-3.004;2022-09-21T18:04:48;4.70;;;2.40;;
24389;SDS011;12510;56.468;-3.004;2022-09-21T18:07:16;2.55;;;2.10;;
24389;SDS011;12510;56.468;-3.004;2022-09-21T18:09:44;3.67;;;2.22;;
24389;SDS011;12510;56.468;-3.004;2022-09-21T18:12:17;3.15;;;2.40;;
24389;SDS011;12510;56.468;-3.004;2022-09-21T18:21:02;5.57;;;2.90;;
24389;SDS011;12510;56.468;-3.004;2022-09-21T18:23:38;2.65;;;2.00;;
24389;SDS011;12510;56.468;-3.004;2022-09-21T18:26:06;2.97;;;2.40;;
24389;SDS011;12510;56.468;-3.004;2022-09-21T18:28:41;3.95;;;2.20;;
24389;SDS011;12510;56.468;-3.004;2022-09-21T18:36:35;2.30;;;2.10;;
24389;SDS011;12510;56.468;-3.004;2022-09-21T18:45:01;2.28;;;1.95;;
24389;SDS011;12510;56.468;-3.004;2022-09-21T18:47:45;3.75;;;2.25;;